createdAt,value
2019-01-13T00:01:00.686Z,6.40
2019-01-13T00:06:04.279Z,6.50
2019-01-13T00:11:07.816Z,6.50
2019-01-13T00:16:11.332Z,6.60
2019-01-13T00:21:14.747Z,6.60
2019-01-13T00:26:18.113Z,6.70
2019-01-13T00:31:21.315Z,6.80
2019-01-13T00:36:24.883Z,6.70
2019-01-13T00:41:34.494Z,6.70
2019-01-13T00:46:37.882Z,6.70
2019-01-13T00:51:41.365Z,6.70
2019-01-13T00:56:47.533Z,6.70
2019-01-13T01:01:50.828Z,6.70
2019-01-13T01:06:57.219Z,6.70
2019-01-13T01:12:00.679Z,6.70
2019-01-13T01:17:09.078Z,6.80
2019-01-13T01:22:15.361Z,6.80
2019-01-13T01:27:18.571Z,6.70
2019-01-13T01:32:21.853Z,6.70
2019-01-13T01:37:25.391Z,6.70
2019-01-13T01:42:28.701Z,6.70
2019-01-13T01:47:32.113Z,6.70
2019-01-13T01:52:35.566Z,6.70
2019-01-13T01:57:38.912Z,6.70
2019-01-13T02:02:42.505Z,6.60
2019-01-13T02:07:46.175Z,6.60
2019-01-13T02:12:50.027Z,6.60
2019-01-13T02:17:56.380Z,6.70
2019-01-13T02:22:59.696Z,6.70
2019-01-13T02:28:04.800Z,6.60
2019-01-13T02:33:08.292Z,6.60
2019-01-13T02:38:17.333Z,6.60
2019-01-13T02:43:23.277Z,6.60
2019-01-13T02:48:26.893Z,6.50
2019-01-13T02:53:30.228Z,6.50
2019-01-13T02:58:33.585Z,6.50
2019-01-13T03:03:42.606Z,6.50
2019-01-13T03:08:49.143Z,6.60
2019-01-13T03:13:52.764Z,6.60
2019-01-13T03:18:56.037Z,6.60
2019-01-13T03:23:59.486Z,6.50
2019-01-13T03:29:03.922Z,6.50
2019-01-13T03:34:11.044Z,6.50
2019-01-13T03:39:14.992Z,6.50
2019-01-13T03:44:18.256Z,6.50
2019-01-13T03:49:21.573Z,6.50
2019-01-13T03:54:25.600Z,6.50
2019-01-13T03:59:29.317Z,6.50
2019-01-13T04:04:33.142Z,6.50
2019-01-13T04:09:39.631Z,6.50
2019-01-13T04:14:45.794Z,6.50
2019-01-13T04:19:49.318Z,6.60
2019-01-13T04:24:52.730Z,6.60
2019-01-13T04:29:56.099Z,6.50
2019-01-13T04:34:59.512Z,6.50
2019-01-13T04:40:03.890Z,6.50
2019-01-13T04:45:07.462Z,6.50
2019-01-13T04:50:10.968Z,6.50
2019-01-13T04:55:14.404Z,6.50
2019-01-13T05:00:18.510Z,6.40
2019-01-13T05:05:23.409Z,6.40
2019-01-13T05:10:26.758Z,6.40
2019-01-13T05:15:44.263Z,6.40
2019-01-13T05:20:55.708Z,6.40
2019-01-13T05:25:59.012Z,6.40
2019-01-13T05:31:02.424Z,6.40
2019-01-13T05:36:05.256Z,6.40
2019-01-13T05:41:08.104Z,6.40
2019-01-13T05:46:11.497Z,6.40
2019-01-13T05:51:14.869Z,6.40
2019-01-13T05:56:18.463Z,6.40
2019-01-13T06:01:21.269Z,6.40
2019-01-13T06:06:24.106Z,6.40
2019-01-13T06:11:30.248Z,6.40
2019-01-13T06:16:38.600Z,6.40
2019-01-13T06:21:42.880Z,6.50
2019-01-13T06:27:05.552Z,6.50
2019-01-13T06:32:08.837Z,6.60
2019-01-13T06:37:12.452Z,6.60
2019-01-13T06:42:19.814Z,6.60
2019-01-13T06:47:23.201Z,6.60
2019-01-13T06:52:26.822Z,6.60
2019-01-13T06:57:30.158Z,6.60
2019-01-13T07:02:36.544Z,6.60
2019-01-13T07:07:39.951Z,6.60
2019-01-13T07:12:43.611Z,6.60
2019-01-13T07:17:47.027Z,6.70
2019-01-13T07:22:50.401Z,6.70
2019-01-13T07:28:10.642Z,6.70
2019-01-13T07:33:16.854Z,6.70
2019-01-13T07:38:20.351Z,6.70
2019-01-13T07:43:24.057Z,6.70
2019-01-13T07:48:30.643Z,6.70
2019-01-13T07:53:33.952Z,6.70
2019-01-13T07:58:37.324Z,6.80
2019-01-13T08:03:40.883Z,6.80
2019-01-13T08:08:44.292Z,6.80
2019-01-13T08:13:47.945Z,6.80
2019-01-13T08:18:51.331Z,6.80
2019-01-13T08:23:56.329Z,6.80
2019-01-13T08:28:59.730Z,6.80
2019-01-13T08:34:06.175Z,6.90
2019-01-13T08:39:09.630Z,6.90
2019-01-13T08:44:14.235Z,6.90
2019-01-13T08:49:18.124Z,6.80
2019-01-13T08:54:21.667Z,6.90
2019-01-13T08:59:25.033Z,6.90
2019-01-13T09:04:28.729Z,6.90
2019-01-13T09:09:32.114Z,6.90
2019-01-13T09:14:44.746Z,7.00
2019-01-13T09:19:48.021Z,7.00
2019-01-13T09:24:50.864Z,7.00
2019-01-13T09:29:54.043Z,7.10
2019-01-13T09:34:57.034Z,7.10
2019-01-13T09:40:02.150Z,7.20
2019-01-13T09:45:07.745Z,7.20
2019-01-13T09:50:13.059Z,7.30
2019-01-13T09:55:17.309Z,7.30
2019-01-13T10:00:23.124Z,7.40
2019-01-13T10:05:26.399Z,7.40
2019-01-13T10:10:29.700Z,7.40
2019-01-13T10:15:33.067Z,7.50
2019-01-13T10:20:36.931Z,7.50
2019-01-13T10:25:40.142Z,7.60
2019-01-13T10:30:43.763Z,7.60
2019-01-13T10:35:46.666Z,7.70
2019-01-13T10:40:50.322Z,7.70
2019-01-13T10:45:53.708Z,7.70
2019-01-13T10:50:57.026Z,7.80
2019-01-13T10:56:00.274Z,7.80
2019-01-13T11:01:03.699Z,7.80
2019-01-13T11:06:06.649Z,7.90
2019-01-13T11:11:09.588Z,7.90
2019-01-13T11:16:12.480Z,8.00
2019-01-13T11:21:15.425Z,8.10
2019-01-13T11:26:18.310Z,8.10
2019-01-13T11:31:21.059Z,8.10
2019-01-13T11:36:24.111Z,8.10
2019-01-13T11:41:26.943Z,8.10
2019-01-13T11:46:29.744Z,8.20
2019-01-13T11:51:33.304Z,8.20
2019-01-13T11:56:36.051Z,8.20
2019-01-13T12:01:38.921Z,8.20
2019-01-13T12:06:41.769Z,8.10
2019-01-13T12:11:44.552Z,8.20
2019-01-13T12:16:47.417Z,8.20
2019-01-13T12:21:50.157Z,8.20
2019-01-13T12:26:52.924Z,8.20
2019-01-13T12:31:55.770Z,8.20
2019-01-13T12:37:01.647Z,8.20
2019-01-13T12:42:05.307Z,8.20
2019-01-13T12:47:08.522Z,8.20
2019-01-13T12:52:11.342Z,8.20
2019-01-13T12:57:14.150Z,8.20
2019-01-13T13:02:16.957Z,8.30
2019-01-13T13:07:20.313Z,8.30
2019-01-13T13:12:23.783Z,8.30
2019-01-13T13:17:27.123Z,8.30
2019-01-13T13:22:30.745Z,8.20
2019-01-13T13:27:33.611Z,8.30
2019-01-13T13:32:36.988Z,8.30
2019-01-13T13:37:40.408Z,8.30
2019-01-13T13:42:43.248Z,8.40
2019-01-13T13:47:46.704Z,8.40
2019-01-13T13:52:50.191Z,8.40
2019-01-13T13:57:55.392Z,8.40
2019-01-13T14:02:58.888Z,8.40
2019-01-13T14:08:02.094Z,8.40
2019-01-13T14:13:05.552Z,8.40
2019-01-13T14:18:08.785Z,8.40
2019-01-13T14:23:12.176Z,8.40
2019-01-13T14:28:15.718Z,8.30
2019-01-13T14:33:18.930Z,8.40
2019-01-13T14:38:22.035Z,8.30
2019-01-13T14:43:25.406Z,8.20
2019-01-13T14:48:28.659Z,8.10
2019-01-13T14:53:32.005Z,8.00
2019-01-13T14:58:35.277Z,8.10
2019-01-13T15:03:38.577Z,8.10
2019-01-13T15:08:41.404Z,7.90
2019-01-13T15:13:44.172Z,7.80
2019-01-13T15:18:46.936Z,7.80
2019-01-13T15:23:49.800Z,7.80
2019-01-13T15:28:52.886Z,7.80
2019-01-13T15:33:56.157Z,7.70
2019-01-13T15:38:59.537Z,7.80
2019-01-13T15:44:02.829Z,7.70
2019-01-13T15:49:06.062Z,7.70
2019-01-13T15:54:10.480Z,7.70
2019-01-13T15:59:13.704Z,7.70
2019-01-13T16:04:17.316Z,7.70
2019-01-13T16:09:20.559Z,7.60
2019-01-13T16:14:24.400Z,7.70
2019-01-13T16:19:27.932Z,7.60
2019-01-13T16:24:31.267Z,7.60
2019-01-13T16:29:34.478Z,7.60
2019-01-13T16:34:37.912Z,7.50
2019-01-13T16:39:41.135Z,7.50
2019-01-13T16:44:44.610Z,7.40
2019-01-13T16:49:48.105Z,7.40
2019-01-13T16:54:51.479Z,7.40
2019-01-13T16:59:55.029Z,7.40
2019-01-13T17:04:58.396Z,7.40
2019-01-13T17:10:01.959Z,7.40
2019-01-13T17:15:06.635Z,7.40
2019-01-13T17:20:12.924Z,7.50
2019-01-13T17:25:18.809Z,7.50
2019-01-13T17:30:26.697Z,7.60
2019-01-13T17:35:30.243Z,7.60
2019-01-13T17:40:33.602Z,7.60
2019-01-13T17:45:37.119Z,7.60
2019-01-13T17:50:40.526Z,7.60
2019-01-13T17:55:43.941Z,7.60
2019-01-13T18:01:12.645Z,7.60
2019-01-13T18:06:15.982Z,7.60
2019-01-13T18:11:19.248Z,7.70
2019-01-13T18:16:23.032Z,7.70
2019-01-13T18:21:26.510Z,7.70
2019-01-13T18:26:29.916Z,7.70
2019-01-13T18:31:34.150Z,7.70
2019-01-13T18:36:37.610Z,7.70
2019-01-13T18:41:41.076Z,7.60
2019-01-13T18:46:45.007Z,7.60
2019-01-13T18:51:48.524Z,7.50
2019-01-13T18:56:52.106Z,7.40
2019-01-13T19:01:55.297Z,7.30
2019-01-13T19:06:58.726Z,7.30
2019-01-13T19:12:02.280Z,7.40
2019-01-13T19:17:07.233Z,7.40
2019-01-13T19:22:10.745Z,7.40
2019-01-13T19:27:14.264Z,7.30
2019-01-13T19:32:17.716Z,7.40
2019-01-13T19:37:20.906Z,7.30
2019-01-13T19:42:24.050Z,7.40
2019-01-13T19:47:27.617Z,7.40
2019-01-13T19:52:31.026Z,7.40
2019-01-13T19:57:34.633Z,7.40
2019-01-13T20:02:38.342Z,7.40
2019-01-13T20:07:41.984Z,7.40
2019-01-13T20:12:46.099Z,7.30
2019-01-13T20:17:49.948Z,7.10
2019-01-13T20:22:53.637Z,7.10
2019-01-13T20:27:58.097Z,7.10
2019-01-13T20:33:02.511Z,7.10
2019-01-13T20:38:06.459Z,7.10
2019-01-13T20:43:13.558Z,7.00
2019-01-13T20:48:17.050Z,6.90
2019-01-13T20:53:20.461Z,6.90
2019-01-13T20:58:25.103Z,6.80
2019-01-13T21:03:28.466Z,6.80
2019-01-13T21:08:31.909Z,6.80
2019-01-13T21:13:35.411Z,6.70
2019-01-13T21:18:38.900Z,6.80
2019-01-13T21:23:42.325Z,6.70
2019-01-13T21:28:45.629Z,6.60
2019-01-13T21:33:49.190Z,6.60
2019-01-13T21:38:55.313Z,6.60
2019-01-13T21:43:58.717Z,6.60
2019-01-13T21:49:02.130Z,6.50
2019-01-13T21:54:10.985Z,6.50
2019-01-13T21:59:13.836Z,6.40
2019-01-13T22:04:21.707Z,6.40
2019-01-13T22:09:31.000Z,6.30
2019-01-13T22:14:34.350Z,6.20
2019-01-13T22:19:40.554Z,6.10
2019-01-13T22:24:43.488Z,6.20
2019-01-13T22:29:49.634Z,6.10
2019-01-13T22:34:52.812Z,6.00
2019-01-13T22:39:55.695Z,5.90
2019-01-13T22:44:59.038Z,5.80
2019-01-13T22:50:05.832Z,5.90
2019-01-13T22:55:15.321Z,5.80
2019-01-13T23:01:19.163Z,5.80
2019-01-13T23:06:22.608Z,5.70
2019-01-13T23:11:27.614Z,5.50
2019-01-13T23:16:31.145Z,5.60
2019-01-13T23:21:34.656Z,5.40
2019-01-13T23:26:38.071Z,5.40
2019-01-13T23:31:41.312Z,5.50
2019-01-13T23:36:44.898Z,5.40
2019-01-13T23:41:48.413Z,5.30
2019-01-13T23:46:51.858Z,5.30
2019-01-13T23:51:55.272Z,5.30
2019-01-13T23:56:58.683Z,5.20
